^^
Saratoga-Weather Station Historical Data
Daily Summary for June 1, 2021 Units:  Both    English   Metric
Daily Weekly Monthly Yearly Custom
  High: Low: Average:
Temperature: 56.7 °F /  13.7 °C 54.9 °F /  12.7 °C 55.9 °F /  13.3 °C
Dew Point: 54.9 °F /  12.7 °C 53.1 °F /  11.7 °C 54 °F /  12.2 °C
Humidity: 94% 92% 93%
Wind Speed: 8.9mph /  14.3km/h - 3.4mph /  5.4km/h
Wind Gust: 10mph /  16.1km/h - -
Wind- - West
Pressure: 30 in /  1015.6 hPa 30 in /  1014.9 hPa -
Precipitation: 0 in /  0.0 mm    
Historical Graphs
 
 
Tabular Data for June 1, 2021
Time Temperature Dew Point Pressure Wind Wind Speed Wind Gust Humidity Rainfall Rate (Hourly) solar
00:00 56.3 °F /  13.5 °C 54.7 °F /  12.6 °C 30in /  1015.2hPa WNW 2.9mph /  4.7km/h 8mph /  12.9km/h 94% 0in /  0.0mm 0 W/m2
00:05 56.3 °F /  13.5 °C 54.7 °F /  12.6 °C 30in /  1015.2hPa WSW 4mph /  6.4km/h 7mph /  11.3km/h 94% 0in /  0.0mm 0 W/m2
00:10 56.5 °F /  13.6 °C 54.9 °F /  12.7 °C 30in /  1015.2hPa WSW 4.9mph /  7.9km/h 7mph /  11.3km/h 94% 0in /  0.0mm 0 W/m2
00:15 56.5 °F /  13.6 °C 54.5 °F /  12.5 °C 30in /  1015.2hPa WSW 4.9mph /  7.9km/h 7mph /  11.3km/h 93% 0in /  0.0mm 0 W/m2
00:20 56.5 °F /  13.6 °C 54.5 °F /  12.5 °C 30in /  1015.2hPa West 2.9mph /  4.7km/h 8mph /  12.9km/h 93% 0in /  0.0mm 0 W/m2
00:25 56.5 °F /  13.6 °C 54.5 °F /  12.5 °C 30in /  1015.2hPa West 2.9mph /  4.7km/h 8mph /  12.9km/h 93% 0in /  0.0mm 0 W/m2
00:30 56.5 °F /  13.6 °C 54.5 °F /  12.5 °C 30in /  1015.2hPa WSW 4mph /  6.4km/h 8mph /  12.9km/h 93% 0in /  0.0mm 0 W/m2
00:35 56.5 °F /  13.6 °C 54.5 °F /  12.5 °C 30in /  1015.2hPa West 6.9mph /  11.1km/h 9mph /  14.5km/h 93% 0in /  0.0mm 0 W/m2
00:40 56.5 °F /  13.6 °C 54.5 °F /  12.5 °C 30in /  1015.2hPa WSW 4mph /  6.4km/h 9mph /  14.5km/h 93% 0in /  0.0mm 0 W/m2
00:45 56.7 °F /  13.7 °C 54.7 °F /  12.6 °C 30in /  1015.2hPa West 2.9mph /  4.7km/h 6mph /  9.7km/h 93% 0in /  0.0mm 0 W/m2
00:50 56.5 °F /  13.6 °C 54.5 °F /  12.5 °C 30in /  1015.2hPa West 2mph /  3.2km/h 9mph /  14.5km/h 93% 0in /  0.0mm 0 W/m2
00:55 56.7 °F /  13.7 °C 54.7 °F /  12.6 °C 30in /  1015.2hPa WSW 2.9mph /  4.7km/h 6mph /  9.7km/h 93% 0in /  0.0mm 0 W/m2
01:00 56.7 °F /  13.7 °C 54.7 °F /  12.6 °C 30in /  1015.2hPa WSW 4mph /  6.4km/h 4mph /  6.4km/h 93% 0in /  0.0mm 0 W/m2
01:05 56.5 °F /  13.6 °C 54.5 °F /  12.5 °C 30in /  1015.2hPa WNW 6.9mph /  11.1km/h 9mph /  14.5km/h 93% 0in /  0.0mm 0 W/m2
01:10 56.5 °F /  13.6 °C 54.5 °F /  12.5 °C 30in /  1015.2hPa WSW 2.9mph /  4.7km/h 8mph /  12.9km/h 93% 0in /  0.0mm 0 W/m2
01:15 56.5 °F /  13.6 °C 54.5 °F /  12.5 °C 30in /  1015.2hPa WSW 4mph /  6.4km/h 5mph /  8km/h 93% 0in /  0.0mm 0 W/m2
01:20 56.5 °F /  13.6 °C 54.5 °F /  12.5 °C 30in /  1015.2hPa WSW 4mph /  6.4km/h 6mph /  9.7km/h 93% 0in /  0.0mm 0 W/m2
01:25 56.5 °F /  13.6 °C 54.5 °F /  12.5 °C 30in /  1015.2hPa West 2.9mph /  4.7km/h 8mph /  12.9km/h 93% 0in /  0.0mm 0 W/m2
01:30 56.5 °F /  13.6 °C 54.5 °F /  12.5 °C 30in /  1015.2hPa West 2.9mph /  4.7km/h 7mph /  11.3km/h 93% 0in /  0.0mm 0 W/m2
01:35 56.5 °F /  13.6 °C 54.5 °F /  12.5 °C 30in /  1015.2hPa West 2mph /  3.2km/h 7mph /  11.3km/h 93% 0in /  0.0mm 0 W/m2
01:40 56.5 °F /  13.6 °C 54.5 °F /  12.5 °C 30in /  1015.2hPa WNW 4mph /  6.4km/h 4mph /  6.4km/h 93% 0in /  0.0mm 0 W/m2
01:45 56.5 °F /  13.6 °C 54.5 °F /  12.5 °C 30in /  1015.2hPa West 4mph /  6.4km/h 6mph /  9.7km/h 93% 0in /  0.0mm 0 W/m2
01:50 56.5 °F /  13.6 °C 54.5 °F /  12.5 °C 30in /  1015.2hPa WNW 4.9mph /  7.9km/h 9mph /  14.5km/h 93% 0in /  0.0mm 0 W/m2
01:55 56.5 °F /  13.6 °C 54.5 °F /  12.5 °C 30in /  1015.2hPa WSW 4.9mph /  7.9km/h 7mph /  11.3km/h 93% 0in /  0.0mm 0 W/m2
02:00 56.5 °F /  13.6 °C 54.5 °F /  12.5 °C 30in /  1015.2hPa West 4mph /  6.4km/h 9mph /  14.5km/h 93% 0in /  0.0mm 0 W/m2
02:05 56.5 °F /  13.6 °C 54.5 °F /  12.5 °C 30in /  1014.9hPa WSW 6.9mph /  11.1km/h 8mph /  12.9km/h 93% 0in /  0.0mm 0 W/m2
02:10 56.5 °F /  13.6 °C 54.5 °F /  12.5 °C 30in /  1015.2hPa West 2mph /  3.2km/h 8mph /  12.9km/h 93% 0in /  0.0mm 0 W/m2
02:15 56.5 °F /  13.6 °C 54.5 °F /  12.5 °C 30in /  1014.9hPa WSW 2mph /  3.2km/h 6mph /  9.7km/h 93% 0in /  0.0mm 0 W/m2
02:20 56.5 °F /  13.6 °C 54.5 °F /  12.5 °C 30in /  1014.9hPa WSW 4.9mph /  7.9km/h 8mph /  12.9km/h 93% 0in /  0.0mm 0 W/m2
02:25 56.5 °F /  13.6 °C 54.5 °F /  12.5 °C 30in /  1014.9hPa WNW 4mph /  6.4km/h 7mph /  11.3km/h 93% 0in /  0.0mm 0 W/m2
02:30 56.5 °F /  13.6 °C 54.5 °F /  12.5 °C 30in /  1015.2hPa West 6mph /  9.7km/h 9mph /  14.5km/h 93% 0in /  0.0mm 0 W/m2
02:35 56.5 °F /  13.6 °C 54.5 °F /  12.5 °C 30in /  1014.9hPa WNW 2.9mph /  4.7km/h 8mph /  12.9km/h 93% 0in /  0.0mm 0 W/m2
02:40 56.5 °F /  13.6 °C 54.5 °F /  12.5 °C 30in /  1015.2hPa WNW 2.9mph /  4.7km/h 7mph /  11.3km/h 93% 0in /  0.0mm 0 W/m2
02:45 56.3 °F /  13.5 °C 54.3 °F /  12.4 °C 30in /  1015.2hPa WNW 2mph /  3.2km/h 7mph /  11.3km/h 93% 0in /  0.0mm 0 W/m2
02:50 56.1 °F /  13.4 °C 54.1 °F /  12.3 °C 30in /  1015.2hPa West 4mph /  6.4km/h 6mph /  9.7km/h 93% 0in /  0.0mm 0 W/m2
02:55 56.1 °F /  13.4 °C 54.1 °F /  12.3 °C 30in /  1015.2hPa NW 2mph /  3.2km/h 6mph /  9.7km/h 93% 0in /  0.0mm 0 W/m2
03:00 56.1 °F /  13.4 °C 54.1 °F /  12.3 °C 30in /  1015.2hPa West 6mph /  9.7km/h 7mph /  11.3km/h 93% 0in /  0.0mm 0 W/m2
03:05 56.1 °F /  13.4 °C 54.1 °F /  12.3 °C 30in /  1015.2hPa WNW 2mph /  3.2km/h 6mph /  9.7km/h 93% 0in /  0.0mm 0 W/m2
03:10 56.1 °F /  13.4 °C 54.1 °F /  12.3 °C 30in /  1015.2hPa West 2mph /  3.2km/h 4mph /  6.4km/h 93% 0in /  0.0mm 0 W/m2
03:15 55.9 °F /  13.3 °C 54 °F /  12.2 °C 30in /  1015.2hPa West 4mph /  6.4km/h 4mph /  6.4km/h 93% 0in /  0.0mm 0 W/m2
03:20 55.9 °F /  13.3 °C 54 °F /  12.2 °C 30in /  1015.2hPa WSW 2mph /  3.2km/h 7mph /  11.3km/h 93% 0in /  0.0mm 0 W/m2
03:25 55.9 °F /  13.3 °C 54 °F /  12.2 °C 30in /  1015.2hPa WSW 2.9mph /  4.7km/h 6mph /  9.7km/h 93% 0in /  0.0mm 0 W/m2
03:30 55.9 °F /  13.3 °C 54 °F /  12.2 °C 30in /  1015.2hPa West 2mph /  3.2km/h 7mph /  11.3km/h 93% 0in /  0.0mm 0 W/m2
03:35 55.9 °F /  13.3 °C 54 °F /  12.2 °C 30in /  1015.2hPa WSW 0.9mph /  1.4km/h 3mph /  4.8km/h 93% 0in /  0.0mm 0 W/m2
03:40 55.9 °F /  13.3 °C 54 °F /  12.2 °C 30in /  1015.2hPa West 0.9mph /  1.4km/h 5mph /  8km/h 93% 0in /  0.0mm 0 W/m2
03:45 55.9 °F /  13.3 °C 54 °F /  12.2 °C 30in /  1015.2hPa WSW 2.9mph /  4.7km/h 6mph /  9.7km/h 93% 0in /  0.0mm 0 W/m2
03:50 55.9 °F /  13.3 °C 54 °F /  12.2 °C 30in /  1015.2hPa WSW 4mph /  6.4km/h 6mph /  9.7km/h 93% 0in /  0.0mm 0 W/m2
03:55 55.9 °F /  13.3 °C 54 °F /  12.2 °C 30in /  1014.9hPa WSW 2.9mph /  4.7km/h 5mph /  8km/h 93% 0in /  0.0mm 0 W/m2
04:01 55.9 °F /  13.3 °C 54 °F /  12.2 °C 30in /  1014.9hPa West 0.9mph /  1.4km/h 7mph /  11.3km/h 93% 0in /  0.0mm 0 W/m2
04:06 55.9 °F /  13.3 °C 54 °F /  12.2 °C 30in /  1014.9hPa West 2.9mph /  4.7km/h 7mph /  11.3km/h 93% 0in /  0.0mm 0 W/m2
04:11 55.9 °F /  13.3 °C 54 °F /  12.2 °C 30in /  1014.9hPa WSW 2.9mph /  4.7km/h 5mph /  8km/h 93% 0in /  0.0mm 0 W/m2
04:16 55.9 °F /  13.3 °C 54 °F /  12.2 °C 30in /  1014.9hPa WNW 2.9mph /  4.7km/h 7mph /  11.3km/h 93% 0in /  0.0mm 0 W/m2
04:21 55.9 °F /  13.3 °C 54 °F /  12.2 °C 30in /  1015.2hPa WNW 2.9mph /  4.7km/h 5mph /  8km/h 93% 0in /  0.0mm 0 W/m2
04:26 55.9 °F /  13.3 °C 54 °F /  12.2 °C 30in /  1015.2hPa West 2mph /  3.2km/h 4mph /  6.4km/h 93% 0in /  0.0mm 0 W/m2
04:31 55.9 °F /  13.3 °C 54 °F /  12.2 °C 30in /  1015.2hPa WNW 4.9mph /  7.9km/h 6mph /  9.7km/h 93% 0in /  0.0mm 0 W/m2
04:36 55.9 °F /  13.3 °C 54 °F /  12.2 °C 30in /  1015.2hPa West 0.9mph /  1.4km/h 3mph /  4.8km/h 93% 0in /  0.0mm 0 W/m2
04:41 55.9 °F /  13.3 °C 54 °F /  12.2 °C 30in /  1015.2hPa SW 4mph /  6.4km/h 7mph /  11.3km/h 93% 0in /  0.0mm 0 W/m2
04:46 55.9 °F /  13.3 °C 53.6 °F /  12 °C 30in /  1015.2hPa WNW 6mph /  9.7km/h 8mph /  12.9km/h 92% 0in /  0.0mm 0 W/m2
04:51 55.9 °F /  13.3 °C 53.6 °F /  12 °C 30in /  1015.2hPa WNW 2.9mph /  4.7km/h 8mph /  12.9km/h 92% 0in /  0.0mm 0 W/m2
04:56 55.9 °F /  13.3 °C 53.6 °F /  12 °C 30in /  1015.2hPa West 2mph /  3.2km/h 6mph /  9.7km/h 92% 0in /  0.0mm 0 W/m2
05:01 55.9 °F /  13.3 °C 53.6 °F /  12 °C 30in /  1015.2hPa WNW 8mph /  12.9km/h 8mph /  12.9km/h 92% 0in /  0.0mm 0 W/m2
05:06 55.9 °F /  13.3 °C 53.6 °F /  12 °C 30in /  1015.2hPa WNW 0.9mph /  1.4km/h 2mph /  3.2km/h 92% 0in /  0.0mm 0 W/m2
05:11 55.9 °F /  13.3 °C 53.6 °F /  12 °C 30in /  1015.2hPa West 2mph /  3.2km/h 2mph /  3.2km/h 92% 0in /  0.0mm 0 W/m2
05:16 55.9 °F /  13.3 °C 53.6 °F /  12 °C 30in /  1015.2hPa WSW 2.9mph /  4.7km/h 4mph /  6.4km/h 92% 0in /  0.0mm 0 W/m2
05:21 55.9 °F /  13.3 °C 53.6 °F /  12 °C 30in /  1015.2hPa West 2mph /  3.2km/h 6mph /  9.7km/h 92% 0in /  0.0mm 0 W/m2
05:26 55.8 °F /  13.2 °C 53.4 °F /  11.9 °C 30in /  1015.2hPa WNW 2mph /  3.2km/h 4mph /  6.4km/h 92% 0in /  0.0mm 0 W/m2
05:31 55.8 °F /  13.2 °C 53.4 °F /  11.9 °C 30in /  1015.2hPa West 6mph /  9.7km/h 6mph /  9.7km/h 92% 0in /  0.0mm 0 W/m2
05:36 55.8 °F /  13.2 °C 53.4 °F /  11.9 °C 30in /  1015.2hPa WNW 2mph /  3.2km/h 6mph /  9.7km/h 92% 0in /  0.0mm 0 W/m2
05:41 55.8 °F /  13.2 °C 53.4 °F /  11.9 °C 30in /  1015.2hPa West 2.9mph /  4.7km/h 7mph /  11.3km/h 92% 0in /  0.0mm 0 W/m2
05:46 55.6 °F /  13.1 °C 53.2 °F /  11.8 °C 30in /  1015.2hPa WNW 8.9mph /  14.3km/h 10mph /  16.1km/h 92% 0in /  0.0mm 0 W/m2
05:51 55.6 °F /  13.1 °C 53.2 °F /  11.8 °C 30in /  1015.2hPa WNW 2mph /  3.2km/h 7mph /  11.3km/h 92% 0in /  0.0mm 0 W/m2
05:56 55.6 °F /  13.1 °C 53.2 °F /  11.8 °C 30in /  1015.2hPa WNW 2mph /  3.2km/h 10mph /  16.1km/h 92% 0in /  0.0mm 5 W/m2
06:01 55.6 °F /  13.1 °C 53.2 °F /  11.8 °C 30in /  1015.2hPa WNW 4mph /  6.4km/h 4mph /  6.4km/h 92% 0in /  0.0mm 7 W/m2
06:06 55.6 °F /  13.1 °C 53.2 °F /  11.8 °C 30in /  1015.2hPa West 8mph /  12.9km/h 8mph /  12.9km/h 92% 0in /  0.0mm 9 W/m2
06:11 55.6 °F /  13.1 °C 53.2 °F /  11.8 °C 30in /  1015.2hPa WSW 2mph /  3.2km/h 9mph /  14.5km/h 92% 0in /  0.0mm 11 W/m2
06:16 55.6 °F /  13.1 °C 53.2 °F /  11.8 °C 30in /  1015.2hPa West 2mph /  3.2km/h 8mph /  12.9km/h 92% 0in /  0.0mm 12 W/m2
06:21 55.6 °F /  13.1 °C 53.2 °F /  11.8 °C 30in /  1015.2hPa West 0.9mph /  1.4km/h 9mph /  14.5km/h 92% 0in /  0.0mm 14 W/m2
06:26 55.6 °F /  13.1 °C 53.2 °F /  11.8 °C 30in /  1015.2hPa West 2.9mph /  4.7km/h 8mph /  12.9km/h 92% 0in /  0.0mm 18 W/m2
06:31 55.6 °F /  13.1 °C 53.2 °F /  11.8 °C 30in /  1015.2hPa WNW 4mph /  6.4km/h 7mph /  11.3km/h 92% 0in /  0.0mm 16 W/m2
06:36 55.6 °F /  13.1 °C 53.2 °F /  11.8 °C 30in /  1015.2hPa WNW 2mph /  3.2km/h 5mph /  8km/h 92% 0in /  0.0mm 25 W/m2
06:41 55.4 °F /  13 °C 53.1 °F /  11.7 °C 30in /  1015.2hPa West 2.9mph /  4.7km/h 7mph /  11.3km/h 92% 0in /  0.0mm 14 W/m2
06:46 55.4 °F /  13 °C 53.4 °F /  11.9 °C 30in /  1015.2hPa West 2mph /  3.2km/h 5mph /  8km/h 93% 0in /  0.0mm 16 W/m2
06:51 55.4 °F /  13 °C 53.4 °F /  11.9 °C 30in /  1015.6hPa West 2mph /  3.2km/h 6mph /  9.7km/h 93% 0in /  0.0mm 25 W/m2
06:56 55.2 °F /  12.9 °C 53.2 °F /  11.8 °C 30in /  1015.6hPa West 6mph /  9.7km/h 9mph /  14.5km/h 93% 0in /  0.0mm 23 W/m2
07:01 55.2 °F /  12.9 °C 53.2 °F /  11.8 °C 30in /  1015.6hPa West 2.9mph /  4.7km/h 5mph /  8km/h 93% 0in /  0.0mm 19 W/m2
07:06 55.2 °F /  12.9 °C 53.2 °F /  11.8 °C 30in /  1015.6hPa West 2mph /  3.2km/h 9mph /  14.5km/h 93% 0in /  0.0mm 28 W/m2
07:11 55 °F /  12.8 °C 53.1 °F /  11.7 °C 30in /  1015.6hPa West 2.9mph /  4.7km/h 4mph /  6.4km/h 93% 0in /  0.0mm 26 W/m2
07:16 55 °F /  12.8 °C 53.1 °F /  11.7 °C 30in /  1015.6hPa West 2.9mph /  4.7km/h 3mph /  4.8km/h 93% 0in /  0.0mm 39 W/m2
07:21 55 °F /  12.8 °C 53.4 °F /  11.9 °C 30in /  1015.6hPa WSW 6.9mph /  11.1km/h 8mph /  12.9km/h 94% 0in /  0.0mm 40 W/m2
07:26 54.9 °F /  12.7 °C 53.2 °F /  11.8 °C 30in /  1015.6hPa West 2mph /  3.2km/h 9mph /  14.5km/h 94% 0in /  0.0mm 40 W/m2
07:31 54.9 °F /  12.7 °C 53.2 °F /  11.8 °C 30in /  1015.6hPa WNW 2.9mph /  4.7km/h 7mph /  11.3km/h 94% 0in /  0.0mm 54 W/m2
Juneau County Weather
Compliments of Weather Underground - 4 mb